createdAt,value
2019-04-04T00:01:25.470Z,8.80
2019-04-04T00:04:06.410Z,8.70
2019-04-04T00:06:47.212Z,8.60
2019-04-04T00:09:28.449Z,8.50
2019-04-04T00:12:09.421Z,8.50
2019-04-04T00:14:49.825Z,8.40
2019-04-04T00:17:30.914Z,8.50
2019-04-04T00:20:11.893Z,8.50
2019-04-04T00:22:53.004Z,8.50
2019-04-04T00:25:34.221Z,8.60
2019-04-04T00:28:15.492Z,8.60
2019-04-04T00:30:56.509Z,8.60
2019-04-04T00:33:37.221Z,8.50
2019-04-04T00:36:17.560Z,8.50
2019-04-04T00:38:58.068Z,8.50
2019-04-04T00:41:26.664Z,8.50
2019-04-04T00:43:55.224Z,8.60
2019-04-04T00:46:43.153Z,8.60
2019-04-04T00:49:31.052Z,8.50
2019-04-04T00:52:18.991Z,8.40
2019-04-04T00:55:06.908Z,8.40
2019-04-04T00:57:54.906Z,8.40
2019-04-04T01:00:42.817Z,8.30
2019-04-04T01:03:30.834Z,8.30
2019-04-04T01:06:20.312Z,8.30
2019-04-04T01:09:00.700Z,8.30
2019-04-04T01:11:41.065Z,8.30
2019-04-04T01:14:22.154Z,8.30
2019-04-04T01:17:04.189Z,8.30
2019-04-04T01:19:48.715Z,8.30
2019-04-04T01:22:28.413Z,8.30
2019-04-04T01:25:09.614Z,8.20
2019-04-04T01:27:50.696Z,8.20
2019-04-04T01:30:31.521Z,8.20
2019-04-04T01:33:12.277Z,8.20
2019-04-04T01:35:54.051Z,8.20
2019-04-04T01:38:34.860Z,8.20
2019-04-04T01:41:15.252Z,8.20
2019-04-04T01:44:04.850Z,8.20
2019-04-04T01:46:38.714Z,8.20
2019-04-04T01:49:21.195Z,8.10
2019-04-04T01:52:02.152Z,8.10
2019-04-04T01:54:42.600Z,8.10
2019-04-04T01:57:23.594Z,8.10
2019-04-04T01:59:52.214Z,8.10
2019-04-04T02:02:20.771Z,8.00
2019-04-04T02:05:09.167Z,8.00
2019-04-04T02:07:49.783Z,8.00
2019-04-04T02:10:30.756Z,8.00
2019-04-04T02:13:11.460Z,8.00
2019-04-04T02:15:52.575Z,8.00
2019-04-04T02:18:33.228Z,7.90
2019-04-04T02:21:14.293Z,7.90
2019-04-04T02:23:54.982Z,7.90
2019-04-04T02:26:36.161Z,7.90
2019-04-04T02:29:18.072Z,7.90
2019-04-04T02:32:00.582Z,7.90
2019-04-04T02:34:44.149Z,7.90
2019-04-04T02:37:25.486Z,7.90
2019-04-04T02:40:08.777Z,7.80
2019-04-04T02:42:48.701Z,7.80
2019-04-04T02:45:29.269Z,7.70
2019-04-04T02:48:10.464Z,7.80
2019-04-04T02:50:51.598Z,7.80
2019-04-04T02:53:32.689Z,7.70
2019-04-04T02:56:13.578Z,7.70
2019-04-04T02:58:54.406Z,7.70
2019-04-04T03:01:35.383Z,7.70
2019-04-04T03:04:15.905Z,7.60
2019-04-04T03:06:58.661Z,7.50
2019-04-04T03:09:42.165Z,7.50
2019-04-04T03:12:25.687Z,7.50
2019-04-04T03:15:06.279Z,7.50
2019-04-04T03:17:46.286Z,7.50
2019-04-04T03:20:34.244Z,7.60
2019-04-04T03:23:22.174Z,7.50
2019-04-04T03:26:10.114Z,7.60
2019-04-04T03:28:58.027Z,7.40
2019-04-04T03:31:45.962Z,7.30
2019-04-04T03:37:41.756Z,7.20
2019-04-04T03:40:30.362Z,7.20
2019-04-04T03:46:12.091Z,7.30
2019-04-04T03:49:00.026Z,7.30
2019-04-04T03:51:47.925Z,7.20
2019-04-04T03:54:35.863Z,7.20
2019-04-04T03:57:23.789Z,7.20
2019-04-04T04:00:32.456Z,7.20
2019-04-04T04:03:22.826Z,7.10
2019-04-04T04:06:10.109Z,7.00
2019-04-04T04:08:59.537Z,6.90
2019-04-04T04:11:40.800Z,6.90
2019-04-04T04:14:22.001Z,6.90
2019-04-04T04:17:03.597Z,6.80
2019-04-04T04:19:44.513Z,6.80
2019-04-04T04:22:25.296Z,6.90
2019-04-04T04:25:06.122Z,6.90
2019-04-04T04:27:48.490Z,6.90
2019-04-04T04:30:29.522Z,6.90
2019-04-04T04:33:10.590Z,7.00
2019-04-04T04:35:51.541Z,7.00
2019-04-04T04:38:32.730Z,6.90
2019-04-04T04:41:01.476Z,6.90
2019-04-04T04:43:33.595Z,6.90
2019-04-04T04:46:19.559Z,6.90
2019-04-04T04:49:07.498Z,7.00
2019-04-04T04:51:55.531Z,7.10
2019-04-04T04:54:43.463Z,7.20
2019-04-04T04:57:31.378Z,7.10
2019-04-04T05:00:19.337Z,7.00
2019-04-04T05:03:07.273Z,7.00
2019-04-04T05:05:55.229Z,7.00
2019-04-04T05:08:43.185Z,7.00
2019-04-04T05:11:31.064Z,7.10
2019-04-04T05:14:19.039Z,7.20
2019-04-04T05:17:20.893Z,7.10
2019-04-04T05:19:56.983Z,7.20
2019-04-04T05:22:44.924Z,7.30
2019-04-04T05:25:32.869Z,7.40
2019-04-04T05:28:20.780Z,7.40
2019-04-04T05:31:08.692Z,7.40
2019-04-04T05:33:58.995Z,7.50
2019-04-04T05:36:46.647Z,7.50
2019-04-04T05:39:34.525Z,7.60
2019-04-04T05:42:22.508Z,7.70
2019-04-04T05:45:13.944Z,7.70
2019-04-04T05:48:00.240Z,7.80
2019-04-04T05:50:48.138Z,7.80
2019-04-04T05:53:36.120Z,7.90
2019-04-04T05:56:24.352Z,7.90
2019-04-04T05:59:13.593Z,7.90
2019-04-04T06:05:08.480Z,8.00
2019-04-04T06:07:56.395Z,8.10
2019-04-04T06:10:44.319Z,8.10
2019-04-04T06:13:27.016Z,8.10
2019-04-04T06:16:07.346Z,8.10
2019-04-04T06:18:49.230Z,8.10
2019-04-04T06:21:30.563Z,8.10
2019-04-04T06:24:11.013Z,8.20
2019-04-04T06:26:51.841Z,8.10
2019-04-04T06:29:32.598Z,8.10
2019-04-04T06:32:13.127Z,8.10
2019-04-04T06:34:56.600Z,8.10
2019-04-04T06:37:38.528Z,8.10
2019-04-04T06:40:18.596Z,8.00
2019-04-04T06:42:59.665Z,8.00
2019-04-04T06:45:40.206Z,8.10
2019-04-04T06:48:21.227Z,8.10
2019-04-04T06:51:01.703Z,8.20
2019-04-04T06:53:42.613Z,8.30
2019-04-04T06:56:23.147Z,8.30
2019-04-04T06:59:04.224Z,8.80
2019-04-04T07:01:44.856Z,8.40
2019-04-04T07:04:25.913Z,8.40
2019-04-04T07:07:06.362Z,8.40
2019-04-04T07:09:48.257Z,8.50
2019-04-04T07:12:28.783Z,8.50
2019-04-04T07:15:12.506Z,8.50
2019-04-04T07:17:52.748Z,8.50
2019-04-04T07:20:33.420Z,8.60
2019-04-04T07:23:14.494Z,8.50
2019-04-04T07:25:55.261Z,8.60
2019-04-04T07:28:36.268Z,8.70
2019-04-04T07:31:17.537Z,8.70
2019-04-04T07:33:58.221Z,8.70
2019-04-04T07:36:39.336Z,8.80
2019-04-04T07:39:20.373Z,8.80
2019-04-04T07:42:01.285Z,8.90
2019-04-04T07:44:41.992Z,8.90
2019-04-04T07:47:23.484Z,9.00
2019-04-04T07:50:04.693Z,9.00
2019-04-04T07:52:46.022Z,9.00
2019-04-04T07:55:27.193Z,9.10
2019-04-04T07:58:07.934Z,9.20
2019-04-04T08:00:48.271Z,9.30
2019-04-04T08:03:28.790Z,9.40
2019-04-04T08:06:09.129Z,9.50
2019-04-04T08:08:49.821Z,9.60
2019-04-04T08:11:31.079Z,9.60
2019-04-04T08:14:12.392Z,9.60
2019-04-04T08:16:53.365Z,9.50
2019-04-04T08:19:34.467Z,9.50
2019-04-04T08:22:15.201Z,9.50
2019-04-04T08:24:56.172Z,9.40
2019-04-04T08:27:36.557Z,9.50
2019-04-04T08:30:17.134Z,9.50
2019-04-04T08:32:57.891Z,9.50
2019-04-04T08:35:38.362Z,9.60
2019-04-04T08:38:19.024Z,9.60
2019-04-04T08:41:00.253Z,9.70
2019-04-04T08:43:41.277Z,9.70
2019-04-04T08:46:22.241Z,9.70
2019-04-04T08:49:03.597Z,9.70
2019-04-04T08:51:44.136Z,9.80
2019-04-04T08:54:25.274Z,9.90
2019-04-04T08:57:06.245Z,10.00
2019-04-04T08:59:47.172Z,10.00
2019-04-04T09:02:28.301Z,10.00
2019-04-04T09:05:16.223Z,10.00
2019-04-04T09:08:04.202Z,10.10
2019-04-04T09:10:52.134Z,10.10
2019-04-04T09:13:33.085Z,10.10
2019-04-04T09:16:13.531Z,10.10
2019-04-04T09:18:54.461Z,10.10
2019-04-04T09:21:35.094Z,10.10
2019-04-04T09:24:15.841Z,10.00
2019-04-04T09:26:56.451Z,10.00
2019-04-04T09:29:36.938Z,10.00
2019-04-04T09:32:17.734Z,10.00
2019-04-04T09:34:58.785Z,10.10
2019-04-04T09:37:39.861Z,10.10
2019-04-04T09:40:20.254Z,10.20
2019-04-04T09:43:00.608Z,10.20
2019-04-04T09:45:41.824Z,10.30
2019-04-04T09:48:22.848Z,10.30
2019-04-04T09:51:03.431Z,10.30
2019-04-04T09:53:52.770Z,10.30
2019-04-04T09:56:14.267Z,10.30
2019-04-04T09:58:43.316Z,10.40
2019-04-04T10:01:11.957Z,10.50
2019-04-04T10:03:40.642Z,10.60
2019-04-04T10:06:09.301Z,10.60
2019-04-04T10:08:38.892Z,10.70
2019-04-04T10:11:07.608Z,10.70
2019-04-04T10:13:36.213Z,10.70
2019-04-04T10:16:04.876Z,10.70
2019-04-04T10:18:52.941Z,10.70
2019-04-04T10:21:40.894Z,10.80
2019-04-04T10:24:28.846Z,10.80
2019-04-04T10:27:16.769Z,10.90
2019-04-04T10:30:25.429Z,10.80
2019-04-04T10:33:13.453Z,10.90
2019-04-04T10:36:01.393Z,10.80
2019-04-04T10:38:49.340Z,10.80
2019-04-04T10:41:37.237Z,10.60
2019-04-04T10:50:12.776Z,10.70
2019-04-04T10:53:00.684Z,10.60
2019-04-04T10:55:48.616Z,10.60
2019-04-04T10:58:36.593Z,10.60
2019-04-04T11:01:24.589Z,10.50
2019-04-04T11:04:14.178Z,10.60
2019-04-04T11:07:02.114Z,10.70
2019-04-04T11:09:50.024Z,10.80
2019-04-04T11:12:37.958Z,10.90
2019-04-04T11:15:18.748Z,10.90
2019-04-04T11:17:59.633Z,10.90
2019-04-04T11:20:39.972Z,11.00
2019-04-04T11:23:21.197Z,11.10
2019-04-04T11:26:01.780Z,11.10
2019-04-04T11:28:42.552Z,11.10
2019-04-04T11:31:23.696Z,11.00
2019-04-04T11:34:04.917Z,11.10
2019-04-04T11:36:45.533Z,11.20
2019-04-04T11:39:27.616Z,11.20
2019-04-04T11:42:08.765Z,11.30
2019-04-04T11:44:37.361Z,11.30
2019-04-04T11:47:05.970Z,11.40
2019-04-04T11:49:53.873Z,11.40
2019-04-04T11:52:41.813Z,11.40
2019-04-04T11:55:29.815Z,11.40
2019-04-04T11:58:17.761Z,11.40
2019-04-04T12:04:00.334Z,11.50
2019-04-04T12:06:48.269Z,11.50
2019-04-04T12:09:36.212Z,11.50
2019-04-04T12:12:24.181Z,11.40
2019-04-04T12:15:05.554Z,11.40
2019-04-04T12:17:46.177Z,11.30
2019-04-04T12:20:27.057Z,11.30
2019-04-04T12:23:07.807Z,11.40
2019-04-04T12:25:48.891Z,11.40
2019-04-04T12:28:29.681Z,11.40
2019-04-04T12:31:10.097Z,11.40
2019-04-04T12:33:50.512Z,11.30
2019-04-04T12:36:31.479Z,11.30
2019-04-04T12:39:12.128Z,11.20
2019-04-04T12:41:53.541Z,11.30
2019-04-04T12:44:34.561Z,11.30
2019-04-04T12:47:15.056Z,11.30
2019-04-04T12:49:56.596Z,11.30
2019-04-04T12:52:37.493Z,11.40
2019-04-04T12:55:18.233Z,11.40
2019-04-04T12:57:58.730Z,11.40
2019-04-04T13:00:39.492Z,11.50
2019-04-04T13:03:22.423Z,11.50
2019-04-04T13:05:50.685Z,11.50
2019-04-04T13:08:31.459Z,11.50
2019-04-04T13:11:11.876Z,11.50
2019-04-04T13:13:52.509Z,11.50
2019-04-04T13:16:33.513Z,11.60
2019-04-04T13:19:14.741Z,11.70
2019-04-04T13:21:55.576Z,11.70
2019-04-04T13:24:37.010Z,11.80
2019-04-04T13:27:17.808Z,11.90
2019-04-04T13:32:41.377Z,12.10
2019-04-04T13:35:22.369Z,12.10
2019-04-04T13:38:02.846Z,12.10
2019-04-04T13:40:45.692Z,12.10
2019-04-04T13:43:25.293Z,12.10
2019-04-04T13:46:06.640Z,12.10
2019-04-04T13:48:47.419Z,12.10
2019-04-04T13:51:29.085Z,12.10
2019-04-04T13:54:10.009Z,12.10
2019-04-04T13:56:50.417Z,12.10
2019-04-04T13:59:31.512Z,12.20
2019-04-04T14:02:12.725Z,12.20
2019-04-04T14:04:55.282Z,12.20
2019-04-04T14:07:36.065Z,12.20
2019-04-04T14:10:17.556Z,12.20
2019-04-04T14:12:58.585Z,12.30
2019-04-04T14:15:39.545Z,12.30
2019-04-04T14:18:21.577Z,12.30
2019-04-04T14:21:04.116Z,12.40
2019-04-04T14:23:45.381Z,12.60
2019-04-04T14:26:27.207Z,12.70
2019-04-04T14:29:07.949Z,12.80
2019-04-04T14:31:48.861Z,13.00
2019-04-04T14:34:29.681Z,13.00
2019-04-04T14:37:10.289Z,13.10
2019-04-04T14:39:51.033Z,13.10
2019-04-04T14:42:39.153Z,13.10
2019-04-04T14:45:27.068Z,13.20
2019-04-04T14:48:15.084Z,13.10
2019-04-04T14:50:44.088Z,13.00
2019-04-04T14:53:12.691Z,13.00
2019-04-04T14:55:41.268Z,13.00
2019-04-04T14:58:30.703Z,13.10
2019-04-04T15:01:18.885Z,13.10
2019-04-04T15:04:06.793Z,13.10
2019-04-04T15:06:54.736Z,13.10
2019-04-04T15:09:42.645Z,13.00
2019-04-04T15:12:30.580Z,12.90
2019-04-04T15:15:18.680Z,12.90
2019-04-04T15:17:59.837Z,12.80
2019-04-04T15:20:40.344Z,12.80
2019-04-04T15:23:09.131Z,12.70
2019-04-04T15:25:37.701Z,12.80
2019-04-04T15:28:26.260Z,12.70
2019-04-04T15:31:15.666Z,12.70
2019-04-04T15:34:03.612Z,12.60
2019-04-04T15:36:51.538Z,12.50
2019-04-04T15:39:39.709Z,12.50
2019-04-04T15:42:27.623Z,12.50
2019-04-04T15:48:23.020Z,12.30
2019-04-04T15:51:00.636Z,12.20
2019-04-04T15:53:48.588Z,12.20
2019-04-04T15:56:36.492Z,12.20
2019-04-04T15:59:36.413Z,12.20
2019-04-04T16:01:55.233Z,12.10
2019-04-04T16:04:43.174Z,12.20
2019-04-04T16:07:31.073Z,12.20
2019-04-04T16:10:19.038Z,12.10
2019-04-04T16:13:06.959Z,12.10
2019-04-04T16:15:54.915Z,12.10
2019-04-04T16:18:35.641Z,12.10
2019-04-04T16:21:16.139Z,12.10
2019-04-04T16:23:56.945Z,12.10
2019-04-04T16:26:37.780Z,12.10
2019-04-04T16:29:18.740Z,12.10
2019-04-04T16:31:59.468Z,12.20
2019-04-04T16:34:41.304Z,12.30
2019-04-04T16:37:22.497Z,12.30
2019-04-04T16:40:09.065Z,12.20
2019-04-04T16:42:33.526Z,12.20
2019-04-04T16:45:21.644Z,12.10
2019-04-04T16:51:03.761Z,11.90
2019-04-04T16:53:51.657Z,11.70
2019-04-04T16:56:39.556Z,11.60
2019-04-04T16:59:27.492Z,11.50
2019-04-04T17:01:56.164Z,11.40
2019-04-04T17:04:44.145Z,11.30
2019-04-04T17:07:32.081Z,11.20
2019-04-04T17:10:20.528Z,11.20
2019-04-04T17:13:08.541Z,11.10
2019-04-04T17:15:56.456Z,11.10
2019-04-04T17:18:44.403Z,11.00
2019-04-04T17:21:32.316Z,10.90
2019-04-04T17:24:20.589Z,10.90
2019-04-04T17:27:08.481Z,10.80
2019-04-04T17:33:03.498Z,10.70
2019-04-04T17:35:53.054Z,10.60
2019-04-04T17:38:42.592Z,10.60
2019-04-04T17:41:32.105Z,10.50
2019-04-04T17:44:20.306Z,10.50
2019-04-04T17:47:08.147Z,10.40
2019-04-04T17:49:56.080Z,10.40
2019-04-04T17:52:44.643Z,10.30
2019-04-04T17:55:33.688Z,10.30
2019-04-04T18:01:15.329Z,10.20
2019-04-04T18:04:03.274Z,10.10
2019-04-04T18:06:51.180Z,10.10
2019-04-04T18:09:39.121Z,10.00
2019-04-04T18:15:20.861Z,9.90
2019-04-04T18:18:02.089Z,9.90
2019-04-04T18:20:42.701Z,9.90
2019-04-04T18:23:23.484Z,9.80
2019-04-04T18:26:04.512Z,9.80
2019-04-04T18:28:44.941Z,9.70
2019-04-04T18:31:25.759Z,9.70
2019-04-04T18:34:08.342Z,9.70
2019-04-04T18:36:49.720Z,9.60
2019-04-04T18:39:30.205Z,9.60
2019-04-04T18:42:11.145Z,9.60
2019-04-04T18:44:52.384Z,9.60
2019-04-04T18:47:33.601Z,9.50
2019-04-04T18:50:14.215Z,9.50
2019-04-04T18:52:55.349Z,9.50
2019-04-04T18:55:24.833Z,9.40
2019-04-04T18:57:53.428Z,9.40
2019-04-04T19:00:22.253Z,9.40
2019-04-04T19:02:51.020Z,9.30
2019-04-04T19:05:19.947Z,9.30
2019-04-04T19:07:48.528Z,9.30
2019-04-04T19:10:17.288Z,9.20
2019-04-04T19:13:05.960Z,9.20
2019-04-04T19:15:54.845Z,9.20
2019-04-04T19:18:42.777Z,9.20
2019-04-04T19:21:30.714Z,9.20
2019-04-04T19:24:18.617Z,9.20
2019-04-04T19:27:06.573Z,9.20
2019-04-04T19:29:54.484Z,9.10
2019-04-04T19:32:42.468Z,9.10
2019-04-04T19:35:30.457Z,9.00
2019-04-04T19:38:18.405Z,9.00
2019-04-04T19:44:04.693Z,8.90
2019-04-04T19:46:45.997Z,8.80
2019-04-04T19:49:26.991Z,8.80
2019-04-04T19:52:07.840Z,8.70
2019-04-04T19:54:48.609Z,8.80
2019-04-04T19:57:30.254Z,8.70
2019-04-04T20:00:11.387Z,8.60
2019-04-04T20:02:52.345Z,8.60
2019-04-04T20:05:33.357Z,8.60
2019-04-04T20:08:14.181Z,8.50
2019-04-04T20:10:54.697Z,8.50
2019-04-04T20:13:35.892Z,8.40
2019-04-04T20:16:16.798Z,8.40
2019-04-04T20:18:57.554Z,8.30
2019-04-04T20:21:37.936Z,8.30
2019-04-04T20:24:25.838Z,8.30
2019-04-04T20:27:13.881Z,8.30
2019-04-04T20:30:01.781Z,8.30
2019-04-04T20:32:49.729Z,8.30
2019-04-04T20:38:46.669Z,8.40
2019-04-04T20:41:34.704Z,8.40
2019-04-04T20:44:22.758Z,8.40
2019-04-04T20:47:10.733Z,8.30
2019-04-04T20:49:58.703Z,8.20
2019-04-04T20:52:46.938Z,8.20
2019-04-04T20:55:34.885Z,8.20
2019-04-04T20:58:22.791Z,8.20
2019-04-04T21:01:10.717Z,8.10
2019-04-04T21:03:39.419Z,8.10
2019-04-04T21:06:08.017Z,8.10
2019-04-04T21:08:36.821Z,8.10
2019-04-04T21:11:36.914Z,8.10
2019-04-04T21:14:14.763Z,8.10
2019-04-04T21:20:09.579Z,8.20
2019-04-04T21:22:50.491Z,8.10
2019-04-04T21:25:32.919Z,8.10
2019-04-04T21:28:16.758Z,8.10
2019-04-04T21:30:57.217Z,8.10
2019-04-04T21:36:32.784Z,8.00
2019-04-04T21:39:20.685Z,8.00
2019-04-04T21:47:38.548Z,8.00
2019-04-04T21:50:08.190Z,8.00
2019-04-04T21:52:38.150Z,8.00
2019-04-04T21:55:26.243Z,8.00
2019-04-04T21:58:14.338Z,8.00
2019-04-04T22:01:02.425Z,8.00
2019-04-04T22:03:50.465Z,8.00
2019-04-04T22:06:38.467Z,8.00
2019-04-04T22:12:54.705Z,8.00
2019-04-04T22:15:23.336Z,8.00
2019-04-04T22:17:52.104Z,8.10
2019-04-04T22:20:20.866Z,8.10
2019-04-04T22:22:49.688Z,8.10
2019-04-04T22:25:18.264Z,8.10
2019-04-04T22:27:46.994Z,8.10
2019-04-04T22:30:16.006Z,8.00
2019-04-04T22:32:44.575Z,8.00
2019-04-04T22:35:13.308Z,8.00
2019-04-04T22:37:42.057Z,8.00
2019-04-04T22:40:30.128Z,8.00
2019-04-04T22:43:18.063Z,8.00
2019-04-04T22:46:06.000Z,8.10
2019-04-04T22:48:54.109Z,8.10
2019-04-04T22:51:42.051Z,8.10
2019-04-04T22:57:23.758Z,8.10
2019-04-04T23:00:44.223Z,8.10
2019-04-04T23:06:17.103Z,8.20
2019-04-04T23:09:25.798Z,8.20
2019-04-04T23:12:13.820Z,8.20
2019-04-04T23:14:48.371Z,8.20
2019-04-04T23:17:32.094Z,8.20
2019-04-04T23:20:14.016Z,8.20
2019-04-04T23:22:54.469Z,8.20
2019-04-04T23:25:34.981Z,8.20
2019-04-04T23:28:16.068Z,8.20
2019-04-04T23:30:56.998Z,8.20
2019-04-04T23:33:37.668Z,8.20
2019-04-04T23:36:18.676Z,8.20
2019-04-04T23:39:06.597Z,8.30
2019-04-04T23:42:08.491Z,8.30
2019-04-04T23:44:44.160Z,8.30
2019-04-04T23:47:43.794Z,8.30
2019-04-04T23:50:21.856Z,8.30
2019-04-04T23:53:09.935Z,8.30
2019-04-04T23:55:57.844Z,8.30
2019-04-04T23:58:45.790Z,8.30
